createdAt,value
2022-08-18T00:03:57.318Z,83.25
2022-08-18T00:06:23.959Z,82.38
2022-08-18T00:08:59.928Z,85.68
2022-08-18T00:11:41.324Z,84.57
2022-08-18T00:14:22.483Z,81.43
2022-08-18T00:16:54.584Z,91.07
2022-08-18T00:19:46.593Z,86.50
2022-08-18T00:22:15.414Z,87.38
2022-08-18T00:24:48.393Z,85.40
2022-08-18T00:27:22.985Z,85.68
2022-08-18T00:29:56.244Z,83.18
2022-08-18T00:32:27.244Z,86.65
2022-08-18T00:34:54.884Z,87.45
2022-08-18T00:37:23.854Z,81.05
2022-08-18T00:39:53.071Z,78.35
2022-08-18T00:42:30.486Z,75.72
2022-08-18T00:45:02.571Z,73.05
2022-08-18T00:47:36.456Z,72.55
2022-08-18T00:50:19.210Z,78.47
2022-08-18T00:52:54.345Z,71.80
2022-08-18T00:55:22.919Z,76.78
2022-08-18T00:59:44.975Z,84.70
2022-08-18T01:02:20.325Z,79.43
2022-08-18T01:04:48.085Z,83.38
2022-08-18T01:07:31.851Z,78.78
2022-08-18T01:10:00.577Z,77.32
2022-08-18T01:12:45.874Z,81.68
2022-08-18T01:15:29.292Z,78.00
2022-08-18T01:18:25.380Z,81.80
2022-08-18T01:21:33.112Z,74.03
2022-08-18T01:24:05.040Z,68.22
2022-08-18T01:26:35.241Z,67.53
2022-08-18T01:29:18.599Z,63.03
2022-08-18T01:31:55.682Z,66.43
2022-08-18T01:34:26.462Z,65.72
2022-08-18T01:40:59.809Z,72.28
2022-08-18T01:42:12.397Z,68.90
2022-08-18T01:44:43.369Z,63.45
2022-08-18T01:47:12.910Z,67.32
2022-08-18T01:49:43.989Z,59.00
2022-08-18T01:52:21.322Z,57.35
2022-08-18T01:54:50.303Z,58.80
2022-08-18T01:57:19.204Z,52.90
2022-08-18T01:59:47.253Z,54.55
2022-08-18T02:02:25.082Z,54.92
2022-08-18T02:05:01.068Z,49.03
2022-08-18T02:07:36.012Z,49.03
2022-08-18T02:10:11.801Z,49.85
2022-08-18T02:12:41.094Z,53.92
2022-08-18T02:15:09.718Z,48.03
2022-08-18T02:17:41.983Z,45.53
2022-08-18T02:20:12.979Z,47.47
2022-08-18T02:22:41.231Z,45.67
2022-08-18T02:25:09.927Z,43.28
2022-08-18T02:29:05.343Z,45.67
2022-08-18T02:31:33.032Z,42.33
2022-08-18T02:34:02.367Z,44.00
2022-08-18T02:36:29.822Z,42.58
2022-08-18T02:38:59.937Z,40.58
2022-08-18T02:41:29.652Z,45.22
2022-08-18T02:43:59.659Z,40.95
2022-08-18T02:46:29.722Z,38.15
2022-08-18T02:49:05.612Z,41.35
2022-08-18T02:51:33.331Z,35.40
2022-08-18T02:54:01.110Z,33.92
2022-08-18T02:56:40.222Z,35.05
2022-08-18T02:59:18.025Z,33.42
2022-08-18T03:01:47.830Z,31.35
2022-08-18T03:04:28.097Z,34.25
2022-08-18T03:06:56.955Z,31.38
2022-08-18T03:09:24.888Z,35.90
2022-08-18T03:11:53.694Z,34.50
2022-08-18T03:14:21.385Z,33.78
2022-08-18T03:16:54.119Z,28.48
2022-08-18T03:19:30.038Z,28.40
2022-08-18T03:22:03.006Z,29.77
2022-08-18T03:24:33.182Z,27.73
2022-08-18T03:27:03.739Z,31.35
2022-08-18T03:32:02.848Z,26.25
2022-08-18T03:34:32.273Z,26.17
2022-08-18T03:37:03.108Z,26.50
2022-08-18T03:39:34.154Z,23.73
2022-08-18T03:42:03.198Z,23.25
2022-08-18T03:44:37.238Z,26.38
2022-08-18T03:47:09.308Z,29.58
2022-08-18T03:49:38.297Z,25.88
2022-08-18T03:52:10.478Z,25.70
2022-08-18T03:54:39.370Z,27.92
2022-08-18T03:57:12.487Z,29.88
2022-08-18T03:59:43.813Z,27.13
2022-08-18T04:02:13.080Z,27.05
2022-08-18T04:04:42.866Z,26.33
2022-08-18T04:07:13.611Z,26.45
2022-08-18T04:09:42.070Z,26.88
2022-08-18T04:12:17.025Z,23.40
2022-08-18T04:14:48.602Z,24.23
2022-08-18T04:17:25.420Z,23.92
2022-08-18T04:19:54.776Z,28.05
2022-08-18T04:22:23.025Z,27.05
2022-08-18T04:24:50.935Z,24.48
2022-08-18T04:27:20.236Z,47.85
2022-08-18T04:29:48.260Z,26.83
2022-08-18T04:32:16.289Z,23.98
2022-08-18T04:34:43.678Z,27.55
2022-08-18T04:37:11.243Z,24.63
2022-08-18T04:39:38.924Z,29.63
2022-08-18T04:42:06.375Z,27.95
2022-08-18T04:44:35.331Z,28.95
2022-08-18T04:47:05.548Z,28.25
2022-08-18T04:49:34.170Z,27.92
2022-08-18T04:52:38.717Z,29.10
2022-08-18T04:55:09.628Z,30.65
2022-08-18T04:57:37.877Z,30.20
2022-08-18T05:00:07.095Z,28.48
2022-08-18T05:02:35.214Z,32.40
2022-08-18T05:05:04.497Z,33.28
2022-08-18T05:07:33.087Z,30.95
2022-08-18T05:10:02.826Z,35.88
2022-08-18T05:12:31.094Z,34.55
2022-08-18T05:14:58.610Z,36.63
2022-08-18T05:17:30.211Z,36.38
2022-08-18T05:20:02.097Z,33.58
2022-08-18T05:22:32.185Z,40.63
2022-08-18T05:25:01.104Z,35.95
2022-08-18T05:27:33.955Z,38.85
2022-08-18T05:30:04.546Z,39.00
2022-08-18T05:32:47.364Z,43.63
2022-08-18T05:35:42.971Z,39.58
2022-08-18T05:38:14.178Z,43.25
2022-08-18T05:40:42.944Z,36.72
2022-08-18T05:43:11.358Z,38.65
2022-08-18T05:45:41.679Z,39.30
2022-08-18T05:48:09.260Z,36.60
2022-08-18T05:50:38.391Z,34.25
2022-08-18T05:53:15.366Z,33.45
2022-08-18T05:56:23.459Z,35.88
2022-08-18T05:58:55.898Z,33.45
2022-08-18T06:01:46.151Z,28.90
2022-08-18T06:04:56.428Z,26.33
2022-08-18T06:07:36.470Z,29.98
2022-08-18T06:10:07.130Z,32.97
2022-08-18T06:12:46.628Z,29.70
2022-08-18T06:15:24.744Z,31.15
2022-08-18T06:18:04.984Z,31.67
2022-08-18T06:20:42.510Z,37.47
2022-08-18T06:23:32.860Z,30.92
2022-08-18T06:26:40.439Z,30.42
2022-08-18T06:29:16.510Z,31.23
2022-08-18T06:32:11.672Z,26.83
2022-08-18T06:35:08.517Z,31.08
2022-08-18T06:38:18.058Z,31.10
2022-08-18T06:40:48.803Z,30.40
2022-08-18T06:43:17.382Z,31.38
2022-08-18T06:45:52.444Z,27.95
2022-08-18T06:48:43.173Z,24.42
2022-08-18T06:51:20.157Z,24.42
2022-08-18T06:53:55.337Z,22.88
2022-08-18T06:56:25.973Z,22.00
2022-08-18T06:58:56.102Z,22.55
2022-08-18T07:01:25.551Z,27.73
2022-08-18T07:03:56.662Z,23.67
2022-08-18T07:06:27.297Z,20.60
2022-08-18T07:09:15.736Z,23.40
2022-08-18T07:12:01.911Z,19.15
2022-08-18T07:14:29.277Z,22.58
2022-08-18T07:17:19.380Z,19.45
2022-08-18T07:19:59.563Z,26.05
2022-08-18T07:22:29.964Z,24.92
2022-08-18T07:25:07.149Z,21.33
2022-08-18T07:27:49.468Z,17.30
2022-08-18T07:30:19.711Z,20.05
2022-08-18T07:33:05.418Z,20.90
2022-08-18T07:36:07.161Z,23.40
2022-08-18T07:38:47.150Z,25.10
2022-08-18T07:41:26.915Z,22.20
2022-08-18T07:43:57.431Z,20.58
2022-08-18T07:46:37.384Z,18.60
2022-08-18T07:49:07.787Z,18.10
2022-08-18T07:51:53.212Z,16.52
2022-08-18T07:54:49.559Z,16.95
2022-08-18T07:57:42.680Z,15.45
2022-08-18T08:00:57.672Z,20.05
2022-08-18T08:03:34.464Z,13.73
2022-08-18T08:06:14.974Z,20.35
2022-08-18T08:11:35.673Z,15.82
2022-08-18T08:14:04.993Z,16.88
2022-08-18T08:17:04.721Z,18.52
2022-08-18T08:19:59.085Z,16.77
2022-08-18T08:25:45.080Z,18.30
2022-08-18T08:28:34.502Z,19.23
2022-08-18T08:31:39.435Z,17.23
2022-08-18T08:34:34.515Z,13.73
2022-08-18T08:37:05.668Z,15.48
2022-08-18T08:39:40.334Z,11.63
2022-08-18T08:42:31.596Z,9.25
2022-08-18T08:45:11.379Z,14.32
2022-08-18T08:48:08.158Z,13.55
2022-08-18T08:50:47.358Z,10.82
2022-08-18T08:53:29.903Z,13.32
2022-08-18T08:56:07.952Z,10.70
2022-08-18T08:58:44.978Z,10.45
2022-08-18T09:01:27.185Z,18.70
2022-08-18T09:04:03.467Z,10.70
2022-08-18T09:06:52.511Z,9.07
2022-08-18T09:09:26.730Z,12.07
2022-08-18T09:12:29.308Z,9.27
2022-08-18T09:15:24.616Z,8.57
2022-08-18T09:18:34.774Z,17.08
2022-08-18T09:21:20.634Z,12.93
2022-08-18T09:23:52.761Z,8.43
2022-08-18T09:26:39.345Z,11.68
2022-08-18T09:29:23.703Z,9.65
2022-08-18T09:32:20.353Z,11.57
2022-08-18T09:35:11.573Z,10.45
2022-08-18T09:37:45.134Z,12.32
2022-08-18T09:43:39.510Z,8.60
2022-08-18T09:46:09.688Z,12.82
2022-08-18T09:51:36.225Z,12.13
2022-08-18T09:54:13.583Z,10.38
2022-08-18T09:59:37.959Z,10.20
2022-08-18T10:02:36.825Z,9.70
2022-08-18T10:05:17.456Z,8.75
2022-08-18T10:08:08.312Z,10.88
2022-08-18T10:11:01.173Z,10.32
2022-08-18T10:13:49.499Z,10.57
2022-08-18T10:19:50.309Z,8.57
2022-08-18T10:22:43.949Z,9.73
2022-08-18T10:25:22.960Z,6.55
2022-08-18T10:27:57.471Z,7.88
2022-08-18T10:30:36.260Z,7.15
2022-08-18T10:33:57.162Z,8.18
2022-08-18T10:37:12.456Z,9.25
2022-08-18T10:40:13.105Z,6.68
2022-08-18T10:42:49.634Z,6.57
2022-08-18T10:48:24.467Z,6.05
2022-08-18T10:51:21.627Z,10.60
2022-08-18T10:54:18.450Z,8.18
2022-08-18T10:56:58.469Z,7.40
2022-08-18T10:59:52.246Z,7.07
2022-08-18T11:02:31.144Z,7.15
2022-08-18T11:04:59.924Z,8.05
2022-08-18T11:07:33.972Z,5.40
2022-08-18T11:10:57.279Z,4.68
2022-08-18T11:13:45.678Z,7.78
2022-08-18T11:16:37.182Z,8.20
2022-08-18T11:19:13.179Z,8.80
2022-08-18T11:21:51.242Z,6.80
2022-08-18T11:24:25.985Z,8.07
2022-08-18T11:27:17.557Z,8.57
2022-08-18T11:29:46.812Z,6.88
2022-08-18T11:32:24.189Z,6.35
2022-08-18T11:35:10.789Z,5.45
2022-08-18T11:37:55.218Z,12.63
2022-08-18T11:41:08.775Z,8.23
2022-08-18T11:46:42.975Z,10.50
2022-08-18T11:49:28.581Z,7.57
2022-08-18T11:52:26.316Z,8.90
2022-08-18T11:55:14.563Z,10.43
2022-08-18T11:57:59.682Z,7.30
2022-08-18T12:00:42.635Z,8.48
2022-08-18T12:03:20.129Z,8.30
2022-08-18T12:05:56.873Z,8.73
2022-08-18T12:08:58.177Z,9.07
2022-08-18T12:11:29.181Z,7.00
2022-08-18T12:14:32.209Z,7.28
2022-08-18T12:17:03.418Z,6.97
2022-08-18T12:19:34.371Z,6.95
2022-08-18T12:22:14.004Z,5.85
2022-08-18T12:24:42.094Z,6.88
2022-08-18T12:27:20.904Z,9.75
2022-08-18T12:29:52.440Z,6.43
2022-08-18T12:35:11.776Z,7.72
2022-08-18T12:38:03.324Z,8.50
2022-08-18T12:40:31.291Z,6.93
2022-08-18T12:42:58.932Z,5.95
2022-08-18T12:45:28.957Z,5.63
2022-08-18T12:47:57.021Z,4.63
2022-08-18T12:50:31.160Z,8.40
2022-08-18T12:53:02.036Z,5.05
2022-08-18T12:55:35.299Z,6.75
2022-08-18T12:58:06.334Z,5.13
2022-08-18T13:00:35.119Z,4.80
2022-08-18T13:03:03.826Z,6.38
2022-08-18T13:05:31.887Z,6.43
2022-08-18T13:08:05.832Z,9.73
2022-08-18T13:10:43.226Z,6.05
2022-08-18T13:13:19.118Z,4.38
2022-08-18T13:15:57.929Z,7.72
2022-08-18T13:18:27.223Z,7.23
2022-08-18T13:20:58.516Z,13.10
2022-08-18T13:23:27.760Z,8.88
2022-08-18T13:26:01.690Z,7.73
2022-08-18T13:28:36.095Z,8.02
2022-08-18T13:31:20.512Z,7.43
2022-08-18T13:33:59.466Z,8.23
2022-08-18T13:36:46.235Z,9.13
2022-08-18T13:39:33.610Z,7.03
2022-08-18T13:42:21.752Z,6.30
2022-08-18T13:44:53.122Z,7.32
2022-08-18T13:47:22.589Z,8.48
2022-08-18T13:49:58.050Z,6.07
2022-08-18T13:52:34.154Z,6.20
2022-08-18T13:55:08.537Z,8.80
2022-08-18T13:57:40.149Z,6.47
2022-08-18T14:00:18.509Z,6.95
2022-08-18T14:02:57.326Z,8.02
2022-08-18T14:05:51.107Z,5.10
2022-08-18T14:08:18.909Z,5.57
2022-08-18T14:10:51.223Z,8.38
2022-08-18T14:13:24.743Z,6.45
2022-08-18T14:15:55.959Z,7.68
2022-08-18T14:18:29.159Z,6.88
2022-08-18T14:21:22.981Z,9.98
2022-08-18T14:24:14.286Z,7.47
2022-08-18T14:26:50.536Z,10.60
2022-08-18T14:29:46.511Z,9.07
2022-08-18T14:32:07.241Z,12.85
2022-08-18T14:34:38.060Z,5.75
2022-08-18T14:37:17.741Z,6.25
2022-08-18T14:39:47.929Z,7.57
2022-08-18T14:42:19.472Z,11.70
2022-08-18T14:45:17.924Z,8.25
2022-08-18T14:47:50.308Z,7.05
2022-08-18T14:50:19.478Z,8.10
2022-08-18T14:52:51.178Z,9.00
2022-08-18T14:55:19.301Z,7.15
2022-08-18T14:57:47.953Z,5.78
2022-08-18T15:00:17.984Z,6.93
2022-08-18T15:02:53.601Z,4.78
2022-08-18T15:05:24.729Z,9.15
2022-08-18T15:07:53.418Z,4.95
2022-08-18T15:10:23.557Z,3.80
2022-08-18T15:12:57.902Z,5.70
2022-08-18T15:15:26.006Z,3.65
2022-08-18T15:17:53.838Z,4.60
2022-08-18T15:20:29.131Z,6.53
2022-08-18T15:23:27.987Z,4.35
2022-08-18T15:25:56.786Z,6.88
2022-08-18T15:28:28.235Z,4.88
2022-08-18T15:33:42.886Z,10.48
2022-08-18T15:36:10.696Z,5.90
2022-08-18T15:38:43.948Z,7.47
2022-08-18T15:41:46.953Z,5.28
2022-08-18T15:44:22.668Z,9.77
2022-08-18T15:46:53.255Z,8.90
2022-08-18T15:49:21.773Z,8.68
2022-08-18T15:51:52.636Z,6.80
2022-08-18T15:54:20.878Z,7.35
2022-08-18T15:56:58.388Z,7.25
2022-08-18T15:59:39.659Z,6.55
2022-08-18T16:02:11.797Z,6.25
2022-08-18T16:04:47.256Z,5.68
2022-08-18T16:07:18.032Z,9.63
2022-08-18T16:10:02.786Z,8.57
2022-08-18T16:12:30.882Z,8.68
2022-08-18T16:14:59.673Z,7.78
2022-08-18T16:17:31.782Z,6.38
2022-08-18T16:20:00.072Z,7.05
2022-08-18T16:22:29.249Z,9.23
2022-08-18T16:24:56.489Z,7.00
2022-08-18T16:27:23.889Z,7.25
2022-08-18T16:29:53.847Z,10.73
2022-08-18T16:32:21.460Z,12.38
2022-08-18T16:34:50.166Z,10.75
2022-08-18T16:37:17.539Z,10.60
2022-08-18T16:39:44.884Z,10.30
2022-08-18T16:42:13.439Z,7.93
2022-08-18T16:44:40.906Z,8.15
2022-08-18T16:47:08.487Z,9.70
2022-08-18T16:49:36.430Z,9.02
2022-08-18T16:52:04.206Z,8.48
2022-08-18T16:54:33.665Z,7.20
2022-08-18T16:57:01.056Z,10.57
2022-08-18T16:59:47.020Z,8.68
2022-08-18T17:02:32.657Z,9.90
2022-08-18T17:05:02.790Z,7.28
2022-08-18T17:07:32.528Z,9.13
2022-08-18T17:10:01.088Z,8.88
2022-08-18T17:12:29.966Z,9.15
2022-08-18T17:15:02.943Z,8.40
2022-08-18T17:17:32.365Z,5.93
2022-08-18T17:20:01.101Z,11.02
2022-08-18T17:22:28.687Z,7.38
2022-08-18T17:25:04.038Z,8.70
2022-08-18T17:27:34.122Z,6.95
2022-08-18T17:30:16.959Z,5.93
2022-08-18T17:33:08.520Z,10.68
2022-08-18T17:35:42.744Z,5.82
2022-08-18T17:38:25.016Z,5.25
2022-08-18T17:40:55.097Z,6.88
2022-08-18T17:43:34.917Z,7.22
2022-08-18T17:46:10.203Z,7.00
2022-08-18T17:48:53.657Z,7.72
2022-08-18T17:51:39.580Z,9.40
2022-08-18T17:54:22.144Z,6.90
2022-08-18T17:56:58.835Z,7.18
2022-08-18T17:59:45.838Z,7.03
2022-08-18T18:02:30.675Z,6.70
2022-08-18T18:05:01.357Z,9.80
2022-08-18T18:07:36.156Z,7.38
2022-08-18T18:10:23.650Z,6.82
2022-08-18T18:13:33.399Z,6.13
2022-08-18T18:16:19.984Z,6.38
2022-08-18T18:19:00.204Z,5.88
2022-08-18T18:21:57.592Z,7.70
2022-08-18T18:24:24.068Z,8.07
2022-08-18T18:26:52.760Z,5.97
2022-08-18T18:29:38.287Z,6.95
2022-08-18T18:32:24.325Z,5.10
2022-08-18T18:35:27.513Z,5.95
2022-08-18T18:38:01.105Z,4.60
2022-08-18T18:40:40.624Z,7.70
2022-08-18T18:43:20.791Z,6.33
2022-08-18T18:46:25.717Z,7.55
2022-08-18T18:49:38.371Z,7.50
2022-08-18T18:52:30.922Z,5.75
2022-08-18T18:55:19.527Z,9.68
2022-08-18T18:58:02.691Z,5.25
2022-08-18T19:00:33.530Z,5.53
2022-08-18T19:03:16.142Z,8.32
2022-08-18T19:06:21.514Z,6.47
2022-08-18T19:09:03.475Z,7.13
2022-08-18T19:11:53.945Z,7.13
2022-08-18T19:17:01.266Z,6.75
2022-08-18T19:19:47.353Z,7.90
2022-08-18T19:22:46.364Z,7.97
2022-08-18T19:25:35.615Z,7.13
2022-08-18T19:28:31.506Z,7.00
2022-08-18T19:31:09.781Z,6.47
2022-08-18T19:33:41.775Z,7.68
2022-08-18T19:36:44.744Z,8.50
2022-08-18T19:39:38.335Z,8.48
2022-08-18T19:42:14.842Z,7.97
2022-08-18T19:45:15.933Z,9.13
2022-08-18T19:48:02.883Z,7.38
2022-08-18T19:50:52.246Z,8.52
2022-08-18T19:53:40.048Z,9.15
2022-08-18T19:56:25.434Z,9.73
2022-08-18T19:59:17.982Z,7.38
2022-08-18T20:01:57.698Z,11.90
2022-08-18T20:05:03.939Z,12.00
2022-08-18T20:08:12.977Z,12.48
2022-08-18T20:11:18.897Z,16.00
2022-08-18T20:13:49.549Z,8.70
2022-08-18T20:16:43.186Z,9.43
2022-08-18T20:19:42.768Z,8.57
2022-08-18T20:22:32.738Z,17.15
2022-08-18T20:25:08.874Z,10.68
2022-08-18T20:27:51.741Z,10.60
2022-08-18T20:30:22.189Z,13.25
2022-08-18T20:36:14.052Z,13.57
2022-08-18T20:38:41.715Z,16.30
2022-08-18T20:41:26.117Z,10.40
2022-08-18T20:44:02.574Z,14.80
2022-08-18T20:46:46.395Z,10.52
2022-08-18T20:49:34.422Z,14.63
2022-08-18T20:52:38.040Z,13.00
2022-08-18T20:55:11.754Z,10.32
2022-08-18T20:57:41.355Z,11.55
2022-08-18T21:00:26.822Z,11.13
2022-08-18T21:02:59.778Z,11.13
2022-08-18T21:05:38.961Z,12.45
2022-08-18T21:08:21.488Z,10.35
2022-08-18T21:10:56.936Z,13.73
2022-08-18T21:13:41.188Z,12.43
2022-08-18T21:16:33.754Z,13.20
2022-08-18T21:19:25.009Z,14.43
2022-08-18T21:21:56.674Z,11.18
2022-08-18T21:24:28.545Z,10.23
2022-08-18T21:27:01.349Z,11.13
2022-08-18T21:29:47.422Z,13.02
2022-08-18T21:32:31.241Z,14.05
2022-08-18T21:35:10.545Z,15.07
2022-08-18T21:37:41.788Z,14.52
2022-08-18T21:42:44.492Z,11.10
2022-08-18T21:45:25.557Z,11.95
2022-08-18T21:47:56.996Z,12.43
2022-08-18T21:50:33.056Z,10.95
2022-08-18T21:53:05.490Z,13.85
2022-08-18T21:55:45.468Z,11.77
2022-08-18T21:58:17.303Z,12.80
2022-08-18T22:01:13.892Z,13.05
2022-08-18T22:03:52.207Z,11.43
2022-08-18T22:06:49.812Z,15.05
2022-08-18T22:09:38.823Z,13.75
2022-08-18T22:12:36.930Z,12.18
2022-08-18T22:15:17.755Z,11.63
2022-08-18T22:18:05.889Z,10.60
2022-08-18T22:20:57.898Z,13.85
2022-08-18T22:23:54.336Z,15.30
2022-08-18T22:26:29.604Z,15.32
2022-08-18T22:28:57.128Z,12.57
2022-08-18T22:31:26.969Z,14.68
2022-08-18T22:33:54.831Z,12.95
2022-08-18T22:36:29.769Z,17.23
2022-08-18T22:38:57.258Z,16.27
2022-08-18T22:41:25.783Z,13.80
2022-08-18T22:43:55.406Z,15.43
2022-08-18T22:46:24.939Z,13.38
2022-08-18T22:48:54.073Z,13.73
2022-08-18T22:51:24.353Z,11.55
2022-08-18T22:53:52.103Z,25.25
2022-08-18T22:56:33.898Z,15.02
2022-08-18T22:59:15.818Z,13.82
2022-08-18T23:01:49.470Z,13.15
2022-08-18T23:04:19.065Z,14.15
2022-08-18T23:06:51.924Z,13.90
2022-08-18T23:09:22.253Z,15.57
2022-08-18T23:11:50.591Z,11.73
2022-08-18T23:14:18.076Z,13.35
2022-08-18T23:16:45.618Z,16.80
2022-08-18T23:19:15.213Z,12.23
2022-08-18T23:21:43.687Z,13.40
2022-08-18T23:24:14.565Z,13.27
2022-08-18T23:26:42.609Z,14.13
2022-08-18T23:29:11.956Z,17.70
2022-08-18T23:31:41.928Z,12.82
2022-08-18T23:34:11.360Z,12.95
2022-08-18T23:36:43.657Z,13.52
2022-08-18T23:39:14.065Z,16.73
2022-08-18T23:41:41.715Z,15.38
2022-08-18T23:44:10.346Z,14.13
2022-08-18T23:46:38.128Z,12.63
2022-08-18T23:49:07.598Z,17.10
2022-08-18T23:51:51.579Z,17.00
2022-08-18T23:54:21.468Z,15.55
2022-08-18T23:56:49.668Z,12.95
2022-08-18T23:59:20.230Z,13.88
